Main page
METAR-TAF:

METAR-TAF

Airports :

Lynden Pindling International Airport

Nassau, The Bahamas

latitude: 25-03N, longitude: 077-28W, elevation: 3 m

Current weather observation

The report was made 26 minutes ago, at 19:00 UTC
Wind 11 kt from the West/Northwest
Temperature 30°C
Humidity 62%
Pressure 1012 hPa
Visibility 10 km or more
Few clouds at a height of 4000 ft

METAR: MYNN 091900Z 30011KT 9999 FEW040 30/22 A2989 PKWND 18KT

Time: 15:26 (19:26 UTC)

Forecast

The report was made 3 hours and 26 minutes ago, at 16:00 UTC
Forecast valid from 09 at 18 UTC to 10 at 18 UTC
Wind 11 kt from the West
Visibility 10 km or more
Scattered clouds at a height of 2000 ft
Becoming
from 10 at 12 UTC to 10 at 14 UTC
Wind 12 kt from the North

TAF: MYNN 091600Z 0918/1018 26011KT 9999 SCT020 BECMG 1012/1014 35012KT

Weather observations and forecasts of more than 4000 airports (METAR and TAF reports).

The available stations are represented by yellow and red dots on the map.

Hover mouse over dot to see the name of the station.

Then click to see weather observations and forecasts.

To change the map : click on the green buttons with a black cross to zoom in, on the green button with a dash to zoom out, or on the green arrows for adjacent maps.


METAR-TAF: